« Back
NWS Peachtree City, Ga » Text Product » MCN Terminal Aerodrome Forecast


Printer-friendly Version
Current Version              Previous Versions:   1  2  3  4  5  6  7  8  9  

Terminal Aerodrome Forecast

454
FTUS42 KFFC 091120
TAFMCN
TAF
KMCN 091120Z 0912/1012 29010G18KT P6SM SCT040 BKN070
     FM091600 29012G23KT P6SM BKN040
     FM100000 28009KT P6SM SCT060=

USA.gov is the U.S. government's official web portal to all federal, state and local government web resources and services.